sensor_id;sensor_type;location;lat;lon;timestamp;temperature;humidity
1936;DHT22;969;49.892;10.896;2023-10-13T00:02:07;22.50;58.70
1936;DHT22;969;49.892;10.896;2023-10-13T00:04:33;22.60;58.80
1936;DHT22;969;49.892;10.896;2023-10-13T00:07:03;22.60;58.80
1936;DHT22;969;49.892;10.896;2023-10-13T00:09:30;22.60;58.80
1936;DHT22;969;49.892;10.896;2023-10-13T00:12:06;22.60;58.80
1936;DHT22;969;49.892;10.896;2023-10-13T00:14:39;22.50;58.70
1936;DHT22;969;49.892;10.896;2023-10-13T00:17:06;22.60;58.80
1936;DHT22;969;49.892;10.896;2023-10-13T00:19:45;22.60;58.80
1936;DHT22;969;49.892;10.896;2023-10-13T00:22:15;22.50;58.70
1936;DHT22;969;49.892;10.896;2023-10-13T00:24:45;22.50;58.70
1936;DHT22;969;49.892;10.896;2023-10-13T00:27:21;22.60;58.80
1936;DHT22;969;49.892;10.896;2023-10-13T00:30:05;22.60;58.70
1936;DHT22;969;49.892;10.896;2023-10-13T00:32:51;22.50;58.70
1936;DHT22;969;49.892;10.896;2023-10-13T00:35:21;22.50;58.70
1936;DHT22;969;49.892;10.896;2023-10-13T00:37:53;22.50;58.70
1936;DHT22;969;49.892;10.896;2023-10-13T00:40:23;22.50;58.70
1936;DHT22;969;49.892;10.896;2023-10-13T00:43:01;22.50;58.70
1936;DHT22;969;49.892;10.896;2023-10-13T00:45:56;22.50;59.20
1936;DHT22;969;49.892;10.896;2023-10-13T00:48:36;22.60;58.80
1936;DHT22;969;49.892;10.896;2023-10-13T00:51:09;22.60;58.80
1936;DHT22;969;49.892;10.896;2023-10-13T00:53:55;22.50;58.70
1936;DHT22;969;49.892;10.896;2023-10-13T00:56:22;22.60;58.80
1936;DHT22;969;49.892;10.896;2023-10-13T00:58:53;22.50;58.70
1936;DHT22;969;49.892;10.896;2023-10-13T01:01:21;22.60;58.80
1936;DHT22;969;49.892;10.896;2023-10-13T01:03:49;22.60;58.70
1936;DHT22;969;49.892;10.896;2023-10-13T01:06:18;22.60;58.70
1936;DHT22;969;49.892;10.896;2023-10-13T01:08:48;22.50;58.60
1936;DHT22;969;49.892;10.896;2023-10-13T01:11:19;22.60;58.70
1936;DHT22;969;49.892;10.896;2023-10-13T01:13:46;22.50;58.70
1936;DHT22;969;49.892;10.896;2023-10-13T01:16:19;22.50;58.70
1936;DHT22;969;49.892;10.896;2023-10-13T01:18:49;22.60;58.70
1936;DHT22;969;49.892;10.896;2023-10-13T01:21:15;22.60;58.70
1936;DHT22;969;49.892;10.896;2023-10-13T01:23:45;22.60;58.70
1936;DHT22;969;49.892;10.896;2023-10-13T01:26:13;22.60;58.70
1936;DHT22;969;49.892;10.896;2023-10-13T01:28:47;22.50;58.60
1936;DHT22;969;49.892;10.896;2023-10-13T01:31:13;22.60;58.70
1936;DHT22;969;49.892;10.896;2023-10-13T01:33:50;22.60;58.70
1936;DHT22;969;49.892;10.896;2023-10-13T01:36:19;22.60;58.70
1936;DHT22;969;49.892;10.896;2023-10-13T01:38:47;22.50;58.60
1936;DHT22;969;49.892;10.896;2023-10-13T01:41:13;22.60;58.70
1936;DHT22;969;49.892;10.896;2023-10-13T01:43:39;22.60;58.70
1936;DHT22;969;49.892;10.896;2023-10-13T01:46:04;22.50;58.60
1936;DHT22;969;49.892;10.896;2023-10-13T01:48:30;22.60;58.70
1936;DHT22;969;49.892;10.896;2023-10-13T01:50:58;22.50;58.60
1936;DHT22;969;49.892;10.896;2023-10-13T01:53:27;22.60;58.70
1936;DHT22;969;49.892;10.896;2023-10-13T01:55:54;22.50;58.60
1936;DHT22;969;49.892;10.896;2023-10-13T01:58:23;22.60;58.70
1936;DHT22;969;49.892;10.896;2023-10-13T02:00:51;22.60;58.70
1936;DHT22;969;49.892;10.896;2023-10-13T02:03:17;22.60;58.70
1936;DHT22;969;49.892;10.896;2023-10-13T02:05:44;22.50;58.70
1936;DHT22;969;49.892;10.896;2023-10-13T02:08:16;22.60;58.70
1936;DHT22;969;49.892;10.896;2023-10-13T02:10:52;22.60;58.70
1936;DHT22;969;49.892;10.896;2023-10-13T02:13:20;22.50;58.60
1936;DHT22;969;49.892;10.896;2023-10-13T02:15:48;22.60;58.70
1936;DHT22;969;49.892;10.896;2023-10-13T02:18:15;22.60;58.70
1936;DHT22;969;49.892;10.896;2023-10-13T02:21:01;22.60;58.70
1936;DHT22;969;49.892;10.896;2023-10-13T02:23:30;22.60;58.70
1936;DHT22;969;49.892;10.896;2023-10-13T02:25:59;22.60;58.70
1936;DHT22;969;49.892;10.896;2023-10-13T02:28:36;22.60;58.70
1936;DHT22;969;49.892;10.896;2023-10-13T02:31:02;22.60;58.70
1936;DHT22;969;49.892;10.896;2023-10-13T02:33:29;22.60;58.70
1936;DHT22;969;49.892;10.896;2023-10-13T02:35:59;22.60;58.70
1936;DHT22;969;49.892;10.896;2023-10-13T02:38:29;22.60;58.70
1936;DHT22;969;49.892;10.896;2023-10-13T02:41:09;22.50;58.60
1936;DHT22;969;49.892;10.896;2023-10-13T02:43:35;22.50;58.60
1936;DHT22;969;49.892;10.896;2023-10-13T02:46:02;22.60;58.70
1936;DHT22;969;49.892;10.896;2023-10-13T02:48:28;22.50;58.60
1936;DHT22;969;49.892;10.896;2023-10-13T02:50:58;22.50;58.60
1936;DHT22;969;49.892;10.896;2023-10-13T02:53:28;22.50;58.60
1936;DHT22;969;49.892;10.896;2023-10-13T02:55:55;22.60;58.70
1936;DHT22;969;49.892;10.896;2023-10-13T02:58:40;22.60;58.70
1936;DHT22;969;49.892;10.896;2023-10-13T03:01:09;22.50;58.60
1936;DHT22;969;49.892;10.896;2023-10-13T03:03:51;22.50;58.60
1936;DHT22;969;49.892;10.896;2023-10-13T03:06:21;22.60;58.70
1936;DHT22;969;49.892;10.896;2023-10-13T03:08:49;22.60;58.70
1936;DHT22;969;49.892;10.896;2023-10-13T03:11:15;22.60;58.70
1936;DHT22;969;49.892;10.896;2023-10-13T03:13:46;22.60;58.70
1936;DHT22;969;49.892;10.896;2023-10-13T03:16:15;22.60;58.70
1936;DHT22;969;49.892;10.896;2023-10-13T03:18:47;22.50;58.60
1936;DHT22;969;49.892;10.896;2023-10-13T03:21:24;22.60;58.70
1936;DHT22;969;49.892;10.896;2023-10-13T03:23:58;22.60;58.70
1936;DHT22;969;49.892;10.896;2023-10-13T03:26:31;22.60;58.70
1936;DHT22;969;49.892;10.896;2023-10-13T03:29:09;22.50;58.60
1936;DHT22;969;49.892;10.896;2023-10-13T03:31:39;22.50;58.60
1936;DHT22;969;49.892;10.896;2023-10-13T03:34:05;22.50;58.60
1936;DHT22;969;49.892;10.896;2023-10-13T03:36:35;22.60;58.70
1936;DHT22;969;49.892;10.896;2023-10-13T03:39:22;22.50;58.60
1936;DHT22;969;49.892;10.896;2023-10-13T03:41:53;22.50;58.60
1936;DHT22;969;49.892;10.896;2023-10-13T03:44:19;22.50;58.60
1936;DHT22;969;49.892;10.896;2023-10-13T03:46:46;22.60;58.70
1936;DHT22;969;49.892;10.896;2023-10-13T03:49:15;22.60;58.70
1936;DHT22;969;49.892;10.896;2023-10-13T03:51:45;22.50;58.60
1936;DHT22;969;49.892;10.896;2023-10-13T03:54:13;22.60;58.60
1936;DHT22;969;49.892;10.896;2023-10-13T03:56:42;22.50;58.50
1936;DHT22;969;49.892;10.896;2023-10-13T03:59:10;22.50;58.50
1936;DHT22;969;49.892;10.896;2023-10-13T04:01:42;22.50;58.50
1936;DHT22;969;49.892;10.896;2023-10-13T04:04:13;22.60;58.60
1936;DHT22;969;49.892;10.896;2023-10-13T04:06:59;22.60;58.60
1936;DHT22;969;49.892;10.896;2023-10-13T04:09:36;22.60;58.60
1936;DHT22;969;49.892;10.896;2023-10-13T04:12:06;22.50;58.50
1936;DHT22;969;49.892;10.896;2023-10-13T04:14:43;22.60;58.60
1936;DHT22;969;49.892;10.896;2023-10-13T04:17:24;22.50;58.50
1936;DHT22;969;49.892;10.896;2023-10-13T04:19:54;22.50;58.50
1936;DHT22;969;49.892;10.896;2023-10-13T04:22:28;22.50;58.50
1936;DHT22;969;49.892;10.896;2023-10-13T04:25:16;22.50;58.60
1936;DHT22;969;49.892;10.896;2023-10-13T04:28:12;22.50;58.60
1936;DHT22;969;49.892;10.896;2023-10-13T04:30:48;22.50;58.60
1936;DHT22;969;49.892;10.896;2023-10-13T04:33:23;22.50;58.60
1936;DHT22;969;49.892;10.896;2023-10-13T04:36:12;22.50;58.60
1936;DHT22;969;49.892;10.896;2023-10-13T04:38:46;22.50;58.70
1936;DHT22;969;49.892;10.896;2023-10-13T04:41:34;22.50;58.70
1936;DHT22;969;49.892;10.896;2023-10-13T04:44:23;22.50;58.70
1936;DHT22;969;49.892;10.896;2023-10-13T04:46:56;22.50;58.70
1936;DHT22;969;49.892;10.896;2023-10-13T04:49:29;22.50;58.70
1936;DHT22;969;49.892;10.896;2023-10-13T04:52:02;22.50;58.70
1936;DHT22;969;49.892;10.896;2023-10-13T04:54:41;22.50;58.60
1936;DHT22;969;49.892;10.896;2023-10-13T04:57:15;22.50;58.70
1936;DHT22;969;49.892;10.896;2023-10-13T05:00:04;22.50;58.80
1936;DHT22;969;49.892;10.896;2023-10-13T05:02:40;22.50;58.80
1936;DHT22;969;49.892;10.896;2023-10-13T05:05:13;22.50;58.70
1936;DHT22;969;49.892;10.896;2023-10-13T05:07:39;22.50;58.70
1936;DHT22;969;49.892;10.896;2023-10-13T05:10:24;22.50;58.80
1936;DHT22;969;49.892;10.896;2023-10-13T05:13:08;22.50;58.80
1936;DHT22;969;49.892;10.896;2023-10-13T05:15:52;22.50;58.80
1936;DHT22;969;49.892;10.896;2023-10-13T05:18:36;22.50;58.80
1936;DHT22;969;49.892;10.896;2023-10-13T05:21:21;22.50;58.80
1936;DHT22;969;49.892;10.896;2023-10-13T05:24:06;22.50;58.80
1936;DHT22;969;49.892;10.896;2023-10-13T05:26:51;22.50;58.80
1936;DHT22;969;49.892;10.896;2023-10-13T05:29:43;22.50;58.80
1936;DHT22;969;49.892;10.896;2023-10-13T05:32:28;22.50;58.80
1936;DHT22;969;49.892;10.896;2023-10-13T05:35:13;22.50;58.80
1936;DHT22;969;49.892;10.896;2023-10-13T05:37:58;22.50;58.80
1936;DHT22;969;49.892;10.896;2023-10-13T05:40:56;22.50;58.80
1936;DHT22;969;49.892;10.896;2023-10-13T05:43:41;22.60;58.90
1936;DHT22;969;49.892;10.896;2023-10-13T05:46:26;22.50;58.80
1936;DHT22;969;49.892;10.896;2023-10-13T05:48:52;22.50;58.80
1936;DHT22;969;49.892;10.896;2023-10-13T05:51:27;22.50;58.80
1936;DHT22;969;49.892;10.896;2023-10-13T05:54:05;22.60;58.90
1936;DHT22;969;49.892;10.896;2023-10-13T05:56:47;22.60;58.80
1936;DHT22;969;49.892;10.896;2023-10-13T05:59:32;22.50;58.70
1936;DHT22;969;49.892;10.896;2023-10-13T06:02:19;22.60;58.80
1936;DHT22;969;49.892;10.896;2023-10-13T06:05:04;22.50;58.70
1936;DHT22;969;49.892;10.896;2023-10-13T06:07:49;22.50;58.70
1936;DHT22;969;49.892;10.896;2023-10-13T06:10:33;22.50;58.70
1936;DHT22;969;49.892;10.896;2023-10-13T06:13:17;22.60;58.90
1936;DHT22;969;49.892;10.896;2023-10-13T06:16:13;22.60;58.90
1936;DHT22;969;49.892;10.896;2023-10-13T06:18:58;22.60;58.90
1936;DHT22;969;49.892;10.896;2023-10-13T06:21:43;22.60;58.90
1936;DHT22;969;49.892;10.896;2023-10-13T06:24:28;22.60;58.90
1936;DHT22;969;49.892;10.896;2023-10-13T06:27:12;22.60;58.90
1936;DHT22;969;49.892;10.896;2023-10-13T06:29:56;22.60;58.90
1936;DHT22;969;49.892;10.896;2023-10-13T06:32:23;22.60;58.90
1936;DHT22;969;49.892;10.896;2023-10-13T06:34:55;22.60;58.90
1936;DHT22;969;49.892;10.896;2023-10-13T06:37:27;22.60;58.90
1936;DHT22;969;49.892;10.896;2023-10-13T06:40:16;22.60;58.80
1936;DHT22;969;49.892;10.896;2023-10-13T06:42:56;22.60;58.90
1936;DHT22;969;49.892;10.896;2023-10-13T06:45:41;22.60;58.90
1936;DHT22;969;49.892;10.896;2023-10-13T06:48:07;22.60;58.80
1936;DHT22;969;49.892;10.896;2023-10-13T06:50:37;22.60;58.80
1936;DHT22;969;49.892;10.896;2023-10-13T06:53:07;22.60;58.80
1936;DHT22;969;49.892;10.896;2023-10-13T06:55:37;22.60;59.40
1936;DHT22;969;49.892;10.896;2023-10-13T06:58:07;22.60;58.90
1936;DHT22;969;49.892;10.896;2023-10-13T07:00:39;22.70;58.90
1936;DHT22;969;49.892;10.896;2023-10-13T07:03:06;22.70;58.80
1936;DHT22;969;49.892;10.896;2023-10-13T07:05:41;22.70;58.80
1936;DHT22;969;49.892;10.896;2023-10-13T07:08:07;22.70;58.90
1936;DHT22;969;49.892;10.896;2023-10-13T07:10:33;22.70;58.90
1936;DHT22;969;49.892;10.896;2023-10-13T07:13:11;22.70;58.80
1936;DHT22;969;49.892;10.896;2023-10-13T07:15:39;22.70;58.90
1936;DHT22;969;49.892;10.896;2023-10-13T07:18:13;22.70;58.80
1936;DHT22;969;49.892;10.896;2023-10-13T07:20:41;22.70;58.80
1936;DHT22;969;49.892;10.896;2023-10-13T07:23:11;22.70;58.90
1936;DHT22;969;49.892;10.896;2023-10-13T07:25:52;22.70;58.90
1936;DHT22;969;49.892;10.896;2023-10-13T07:28:20;22.70;58.90
1936;DHT22;969;49.892;10.896;2023-10-13T07:30:46;22.70;58.90
1936;DHT22;969;49.892;10.896;2023-10-13T07:33:20;22.70;58.90
1936;DHT22;969;49.892;10.896;2023-10-13T07:35:47;22.70;58.90
1936;DHT22;969;49.892;10.896;2023-10-13T07:38:19;22.70;58.90
1936;DHT22;969;49.892;10.896;2023-10-13T07:40:47;22.70;58.90
1936;DHT22;969;49.892;10.896;2023-10-13T07:43:16;22.70;58.90
1936;DHT22;969;49.892;10.896;2023-10-13T07:45:46;22.70;58.90
1936;DHT22;969;49.892;10.896;2023-10-13T07:48:16;22.70;58.90
1936;DHT22;969;49.892;10.896;2023-10-13T07:50:58;22.70;58.90
1936;DHT22;969;49.892;10.896;2023-10-13T07:53:26;22.70;58.90
1936;DHT22;969;49.892;10.896;2023-10-13T07:55:53;22.70;59.00
1936;DHT22;969;49.892;10.896;2023-10-13T07:58:23;22.70;58.90
1936;DHT22;969;49.892;10.896;2023-10-13T08:00:51;22.70;58.90
1936;DHT22;969;49.892;10.896;2023-10-13T08:03:33;22.70;58.90
1936;DHT22;969;49.892;10.896;2023-10-13T08:06:13;22.70;58.90
1936;DHT22;969;49.892;10.896;2023-10-13T08:08:39;22.70;59.00
1936;DHT22;969;49.892;10.896;2023-10-13T08:11:11;22.70;59.00
1936;DHT22;969;49.892;10.896;2023-10-13T08:13:42;22.80;59.10
1936;DHT22;969;49.892;10.896;2023-10-13T08:16:20;22.70;59.00
1936;DHT22;969;49.892;10.896;2023-10-13T08:18:49;22.70;59.00
1936;DHT22;969;49.892;10.896;2023-10-13T08:21:16;22.70;59.00
1936;DHT22;969;49.892;10.896;2023-10-13T08:23:43;22.70;59.00
1936;DHT22;969;49.892;10.896;2023-10-13T08:26:18;22.70;59.00
1936;DHT22;969;49.892;10.896;2023-10-13T08:29:03;22.70;58.90
1936;DHT22;969;49.892;10.896;2023-10-13T08:31:41;22.70;58.90
1936;DHT22;969;49.892;10.896;2023-10-13T08:34:07;22.80;59.00
1936;DHT22;969;49.892;10.896;2023-10-13T08:36:41;22.80;59.00
1936;DHT22;969;49.892;10.896;2023-10-13T08:39:07;22.80;59.00
1936;DHT22;969;49.892;10.896;2023-10-13T08:42:01;22.70;58.90
1936;DHT22;969;49.892;10.896;2023-10-13T08:44:44;22.70;58.90
1936;DHT22;969;49.892;10.896;2023-10-13T08:47:18;22.80;58.90
1936;DHT22;969;49.892;10.896;2023-10-13T08:49:46;22.80;59.00
1936;DHT22;969;49.892;10.896;2023-10-13T08:52:18;22.80;59.00
1936;DHT22;969;49.892;10.896;2023-10-13T08:55:05;22.80;59.40
1936;DHT22;969;49.892;10.896;2023-10-13T08:57:49;22.80;59.00
1936;DHT22;969;49.892;10.896;2023-10-13T09:00:19;22.80;59.00
1936;DHT22;969;49.892;10.896;2023-10-13T09:03:06;22.80;59.00
1936;DHT22;969;49.892;10.896;2023-10-13T09:05:51;22.80;59.00
1936;DHT22;969;49.892;10.896;2023-10-13T09:08:31;22.80;59.00
1936;DHT22;969;49.892;10.896;2023-10-13T09:11:02;22.80;59.00
1936;DHT22;969;49.892;10.896;2023-10-13T09:13:36;22.80;59.00
1936;DHT22;969;49.892;10.896;2023-10-13T09:16:15;22.80;59.00
1936;DHT22;969;49.892;10.896;2023-10-13T09:19:07;22.80;59.10
1936;DHT22;969;49.892;10.896;2023-10-13T09:21:39;22.80;59.20
1936;DHT22;969;49.892;10.896;2023-10-13T09:24:12;22.80;59.20
1936;DHT22;969;49.892;10.896;2023-10-13T09:26:46;22.80;59.20
1936;DHT22;969;49.892;10.896;2023-10-13T09:29:18;22.80;59.20
1936;DHT22;969;49.892;10.896;2023-10-13T09:31:47;22.80;59.10
1936;DHT22;969;49.892;10.896;2023-10-13T09:34:20;22.80;59.50
1936;DHT22;969;49.892;10.896;2023-10-13T09:36:47;22.80;59.20
1936;DHT22;969;49.892;10.896;2023-10-13T09:39:14;22.80;59.20
1936;DHT22;969;49.892;10.896;2023-10-13T09:41:55;22.80;59.30
1936;DHT22;969;49.892;10.896;2023-10-13T09:44:25;22.80;59.30
1936;DHT22;969;49.892;10.896;2023-10-13T09:46:58;22.90;59.40
1936;DHT22;969;49.892;10.896;2023-10-13T09:49:29;22.80;59.30
1936;DHT22;969;49.892;10.896;2023-10-13T09:52:14;22.80;59.20
1936;DHT22;969;49.892;10.896;2023-10-13T09:54:58;22.80;59.20
1936;DHT22;969;49.892;10.896;2023-10-13T09:57:29;22.90;59.30
1936;DHT22;969;49.892;10.896;2023-10-13T10:00:20;22.90;59.20
1936;DHT22;969;49.892;10.896;2023-10-13T10:03:06;22.90;59.20
1936;DHT22;969;49.892;10.896;2023-10-13T10:05:56;22.80;59.10
1936;DHT22;969;49.892;10.896;2023-10-13T10:08:29;22.80;59.10
1936;DHT22;969;49.892;10.896;2023-10-13T10:14:04;22.90;59.20
1936;DHT22;969;49.892;10.896;2023-10-13T10:17:06;22.90;59.20
1936;DHT22;969;49.892;10.896;2023-10-13T10:19:48;22.80;59.10
1936;DHT22;969;49.892;10.896;2023-10-13T10:22:25;22.90;59.20
1936;DHT22;969;49.892;10.896;2023-10-13T10:24:56;22.80;59.10
1936;DHT22;969;49.892;10.896;2023-10-13T10:27:30;22.90;59.20
1936;DHT22;969;49.892;10.896;2023-10-13T10:29:57;22.90;59.20
1936;DHT22;969;49.892;10.896;2023-10-13T10:32:36;22.90;59.20
1936;DHT22;969;49.892;10.896;2023-10-13T10:35:09;22.90;59.20
1936;DHT22;969;49.892;10.896;2023-10-13T10:37:40;22.90;59.20
1936;DHT22;969;49.892;10.896;2023-10-13T10:40:13;22.80;59.10
1936;DHT22;969;49.892;10.896;2023-10-13T10:42:57;22.80;59.10
1936;DHT22;969;49.892;10.896;2023-10-13T10:45:29;22.80;59.10
1936;DHT22;969;49.892;10.896;2023-10-13T10:47:58;22.90;59.20
1936;DHT22;969;49.892;10.896;2023-10-13T10:50:27;22.90;59.20
1936;DHT22;969;49.892;10.896;2023-10-13T10:53:04;22.90;59.20
1936;DHT22;969;49.892;10.896;2023-10-13T10:55:37;22.80;59.10
1936;DHT22;969;49.892;10.896;2023-10-13T10:58:03;22.80;59.10
1936;DHT22;969;49.892;10.896;2023-10-13T11:00:48;22.90;59.20
1936;DHT22;969;49.892;10.896;2023-10-13T11:03:15;22.90;59.20
1936;DHT22;969;49.892;10.896;2023-10-13T11:05:44;22.80;59.10
1936;DHT22;969;49.892;10.896;2023-10-13T11:08:21;22.80;59.10
1936;DHT22;969;49.892;10.896;2023-10-13T11:10:53;22.90;59.20
1936;DHT22;969;49.892;10.896;2023-10-13T11:13:18;22.80;59.10
1936;DHT22;969;49.892;10.896;2023-10-13T11:15:47;22.90;59.20
1936;DHT22;969;49.892;10.896;2023-10-13T11:18:14;22.80;59.10
1936;DHT22;969;49.892;10.896;2023-10-13T11:20:49;22.90;59.20
1936;DHT22;969;49.892;10.896;2023-10-13T11:23:21;22.90;59.20
1936;DHT22;969;49.892;10.896;2023-10-13T11:25:59;22.80;59.20
1936;DHT22;969;49.892;10.896;2023-10-13T11:28:25;22.90;59.20
1936;DHT22;969;49.892;10.896;2023-10-13T11:30:57;22.90;59.30
1936;DHT22;969;49.892;10.896;2023-10-13T11:33:36;22.80;59.30
1936;DHT22;969;49.892;10.896;2023-10-13T11:36:02;22.90;59.40
1936;DHT22;969;49.892;10.896;2023-10-13T11:38:38;22.90;59.40
1936;DHT22;969;49.892;10.896;2023-10-13T11:41:13;22.80;59.30
1936;DHT22;969;49.892;10.896;2023-10-13T11:46:10;22.90;59.40
1936;DHT22;969;49.892;10.896;2023-10-13T11:48:36;22.90;59.40
1936;DHT22;969;49.892;10.896;2023-10-13T11:51:03;22.90;59.40
1936;DHT22;969;49.892;10.896;2023-10-13T11:53:47;22.90;59.40
1936;DHT22;969;49.892;10.896;2023-10-13T11:56:18;22.90;59.50
1936;DHT22;969;49.892;10.896;2023-10-13T11:58:46;22.90;59.40
1936;DHT22;969;49.892;10.896;2023-10-13T12:01:12;22.90;59.50
1936;DHT22;969;49.892;10.896;2023-10-13T12:03:38;22.90;59.50
1936;DHT22;969;49.892;10.896;2023-10-13T12:06:22;22.90;59.50
1936;DHT22;969;49.892;10.896;2023-10-13T12:08:59;22.90;59.60
1936;DHT22;969;49.892;10.896;2023-10-13T12:11:40;22.90;59.50
1936;DHT22;969;49.892;10.896;2023-10-13T12:14:08;22.90;59.50
1936;DHT22;969;49.892;10.896;2023-10-13T12:16:46;22.90;59.50
1936;DHT22;969;49.892;10.896;2023-10-13T12:19:19;22.80;59.40
1936;DHT22;969;49.892;10.896;2023-10-13T12:21:52;22.90;59.50
1936;DHT22;969;49.892;10.896;2023-10-13T12:24:24;22.90;59.60
1936;DHT22;969;49.892;10.896;2023-10-13T12:27:03;22.90;59.50
1936;DHT22;969;49.892;10.896;2023-10-13T12:29:47;22.90;59.60
1936;DHT22;969;49.892;10.896;2023-10-13T12:32:13;22.90;59.60
1936;DHT22;969;49.892;10.896;2023-10-13T12:34:40;22.90;59.60
1936;DHT22;969;49.892;10.896;2023-10-13T12:37:29;22.80;59.50
1936;DHT22;969;49.892;10.896;2023-10-13T12:40:13;22.80;59.50
1936;DHT22;969;49.892;10.896;2023-10-13T12:42:58;22.90;59.60
1936;DHT22;969;49.892;10.896;2023-10-13T12:45:44;22.80;59.50
1936;DHT22;969;49.892;10.896;2023-10-13T12:48:29;22.80;59.60
1936;DHT22;969;49.892;10.896;2023-10-13T12:51:14;22.80;59.50
1936;DHT22;969;49.892;10.896;2023-10-13T12:53:50;22.80;59.60
1936;DHT22;969;49.892;10.896;2023-10-13T12:56:17;22.80;59.60
1936;DHT22;969;49.892;10.896;2023-10-13T12:58:43;22.80;59.60
1936;DHT22;969;49.892;10.896;2023-10-13T13:01:18;22.80;59.60
1936;DHT22;969;49.892;10.896;2023-10-13T13:03:50;22.80;59.60
1936;DHT22;969;49.892;10.896;2023-10-13T13:06:20;22.80;59.60
1936;DHT22;969;49.892;10.896;2023-10-13T13:08:59;22.80;59.60
1936;DHT22;969;49.892;10.896;2023-10-13T13:11:26;22.80;59.60
1936;DHT22;969;49.892;10.896;2023-10-13T13:13:54;22.80;59.70
1936;DHT22;969;49.892;10.896;2023-10-13T13:16:19;22.80;60.20
1936;DHT22;969;49.892;10.896;2023-10-13T13:18:50;22.90;59.70
1936;DHT22;969;49.892;10.896;2023-10-13T13:21:15;22.90;59.80
1936;DHT22;969;49.892;10.896;2023-10-13T13:23:52;22.80;59.70
1936;DHT22;969;49.892;10.896;2023-10-13T13:26:24;22.90;59.70
1936;DHT22;969;49.892;10.896;2023-10-13T13:28:50;22.80;59.70
1936;DHT22;969;49.892;10.896;2023-10-13T13:31:19;22.80;59.70
1936;DHT22;969;49.892;10.896;2023-10-13T13:33:50;22.90;59.80
1936;DHT22;969;49.892;10.896;2023-10-13T13:36:16;22.90;59.80
1936;DHT22;969;49.892;10.896;2023-10-13T13:38:42;22.80;59.80
1936;DHT22;969;49.892;10.896;2023-10-13T13:41:12;22.80;59.80
1936;DHT22;969;49.892;10.896;2023-10-13T13:43:48;22.90;60.00
1936;DHT22;969;49.892;10.896;2023-10-13T13:46:20;22.90;60.00
1936;DHT22;969;49.892;10.896;2023-10-13T13:48:59;22.80;59.90
1936;DHT22;969;49.892;10.896;2023-10-13T13:51:27;22.90;60.00
1936;DHT22;969;49.892;10.896;2023-10-13T13:53:54;22.80;59.80
1936;DHT22;969;49.892;10.896;2023-10-13T13:56:20;22.80;59.80
1936;DHT22;969;49.892;10.896;2023-10-13T13:58:48;22.80;59.90
1936;DHT22;969;49.892;10.896;2023-10-13T14:01:14;22.80;59.90
1936;DHT22;969;49.892;10.896;2023-10-13T14:03:48;22.90;60.00
1936;DHT22;969;49.892;10.896;2023-10-13T14:06:21;22.90;59.90
1936;DHT22;969;49.892;10.896;2023-10-13T14:08:54;22.90;59.90
1936;DHT22;969;49.892;10.896;2023-10-13T14:11:21;22.80;59.80
1936;DHT22;969;49.892;10.896;2023-10-13T14:13:51;22.80;59.80
1936;DHT22;969;49.892;10.896;2023-10-13T14:16:21;22.90;59.90
1936;DHT22;969;49.892;10.896;2023-10-13T14:18:49;22.80;59.80
1936;DHT22;969;49.892;10.896;2023-10-13T14:21:16;22.90;59.80
1936;DHT22;969;49.892;10.896;2023-10-13T14:23:49;22.90;59.80
1936;DHT22;969;49.892;10.896;2023-10-13T14:26:16;22.80;59.80
1936;DHT22;969;49.892;10.896;2023-10-13T14:28:50;22.80;59.80
1936;DHT22;969;49.892;10.896;2023-10-13T14:31:20;22.80;59.80
1936;DHT22;969;49.892;10.896;2023-10-13T14:33:47;22.80;59.70
1936;DHT22;969;49.892;10.896;2023-10-13T14:36:13;22.80;59.70
1936;DHT22;969;49.892;10.896;2023-10-13T14:38:38;22.80;59.70
1936;DHT22;969;49.892;10.896;2023-10-13T14:41:05;22.90;59.80
1936;DHT22;969;49.892;10.896;2023-10-13T14:43:31;22.90;59.70
1936;DHT22;969;49.892;10.896;2023-10-13T14:45:57;22.80;59.60
1936;DHT22;969;49.892;10.896;2023-10-13T14:48:22;22.80;59.60
1936;DHT22;969;49.892;10.896;2023-10-13T14:50:50;22.80;59.60
1936;DHT22;969;49.892;10.896;2023-10-13T14:53:16;22.80;59.60
1936;DHT22;969;49.892;10.896;2023-10-13T14:55:45;22.80;59.60
1936;DHT22;969;49.892;10.896;2023-10-13T14:58:10;22.80;59.60
1936;DHT22;969;49.892;10.896;2023-10-13T15:00:41;22.80;59.60
1936;DHT22;969;49.892;10.896;2023-10-13T15:03:11;22.80;59.50
1936;DHT22;969;49.892;10.896;2023-10-13T15:05:39;22.80;59.50
1936;DHT22;969;49.892;10.896;2023-10-13T15:08:09;22.80;59.50
1936;DHT22;969;49.892;10.896;2023-10-13T15:10:34;22.80;59.40
1936;DHT22;969;49.892;10.896;2023-10-13T15:13:03;22.80;59.40
1936;DHT22;969;49.892;10.896;2023-10-13T15:15:29;22.80;59.40
1936;DHT22;969;49.892;10.896;2023-10-13T15:17:58;22.80;59.40
1936;DHT22;969;49.892;10.896;2023-10-13T15:20:23;22.80;59.40
1936;DHT22;969;49.892;10.896;2023-10-13T15:22:49;22.80;59.40
1936;DHT22;969;49.892;10.896;2023-10-13T15:25:15;22.80;59.40
1936;DHT22;969;49.892;10.896;2023-10-13T15:27:49;22.80;59.40
1936;DHT22;969;49.892;10.896;2023-10-13T15:30:22;22.80;59.40
1936;DHT22;969;49.892;10.896;2023-10-13T15:33:12;22.80;59.40
1936;DHT22;969;49.892;10.896;2023-10-13T15:35:41;22.80;59.30
1936;DHT22;969;49.892;10.896;2023-10-13T15:38:11;22.80;59.30
1936;DHT22;969;49.892;10.896;2023-10-13T15:40:43;22.80;59.30
1936;DHT22;969;49.892;10.896;2023-10-13T15:43:10;22.80;59.30
1936;DHT22;969;49.892;10.896;2023-10-13T15:45:36;22.80;59.30
1936;DHT22;969;49.892;10.896;2023-10-13T15:48:05;22.80;59.30
1936;DHT22;969;49.892;10.896;2023-10-13T15:50:38;22.80;59.30
1936;DHT22;969;49.892;10.896;2023-10-13T15:53:05;22.80;59.30
1936;DHT22;969;49.892;10.896;2023-10-13T15:55:35;22.80;59.30
1936;DHT22;969;49.892;10.896;2023-10-13T15:58:02;22.70;59.20
1936;DHT22;969;49.892;10.896;2023-10-13T16:00:27;22.80;59.30
1936;DHT22;969;49.892;10.896;2023-10-13T16:02:56;22.70;59.20
1936;DHT22;969;49.892;10.896;2023-10-13T16:05:31;22.70;59.20
1936;DHT22;969;49.892;10.896;2023-10-13T16:08:01;22.70;59.20
1936;DHT22;969;49.892;10.896;2023-10-13T16:10:28;22.70;59.20
1936;DHT22;969;49.892;10.896;2023-10-13T16:12:54;22.70;59.20
1936;DHT22;969;49.892;10.896;2023-10-13T16:15:20;22.80;59.30
1936;DHT22;969;49.892;10.896;2023-10-13T16:17:47;22.70;59.20
1936;DHT22;969;49.892;10.896;2023-10-13T16:20:13;22.70;59.20
1936;DHT22;969;49.892;10.896;2023-10-13T16:22:45;22.70;59.20
1936;DHT22;969;49.892;10.896;2023-10-13T16:25:12;22.80;59.30
1936;DHT22;969;49.892;10.896;2023-10-13T16:27:42;22.70;59.20
1936;DHT22;969;49.892;10.896;2023-10-13T16:30:09;22.70;59.20
1936;DHT22;969;49.892;10.896;2023-10-13T16:32:36;22.70;59.20
1936;DHT22;969;49.892;10.896;2023-10-13T16:35:05;22.70;59.20
1936;DHT22;969;49.892;10.896;2023-10-13T16:37:31;22.70;59.20
1936;DHT22;969;49.892;10.896;2023-10-13T16:39:57;22.70;59.20
1936;DHT22;969;49.892;10.896;2023-10-13T16:42:31;22.70;59.20
1936;DHT22;969;49.892;10.896;2023-10-13T16:45:01;22.70;59.20
1936;DHT22;969;49.892;10.896;2023-10-13T16:47:41;22.70;59.20